Aviation Digital Data Service (ADDS)

Output produced by METARs form (1315 UTC 22 April 2021)
found at http://www.aviationweather.gov/metar/data/
 
METAR text: VVCT 221300Z 22003KT 8000 -RA FEW013 FEW015CB BKN040 26/25 Q1009 NOSIG CB/SW/NE
Conditions at: VVCT (CAN THO , VN) observed 1300 UTC 22 April 2021
Temperature: 26.0°C (79°F)
Dewpoint: 25.0°C (77°F) [RH = 94%]
Pressure (altimeter): 29.79 inches Hg (1009.0 mb)
Winds: from the SW (220 degrees) at 3 MPH (3 knots; 1.5 m/s)
Visibility: 5 miles ( 8 km)
Ceiling: 4000 feet AGL
Clouds: few clouds at 1300 feet AGL
few clouds at 1500 feet AGL
broken clouds at 4000 feet AGL
Weather: -RA  (light rain)

METAR text: VVCT 221230Z VRB01KT 8000 -RA SCT013 FEW015CB BKN040 26/25 Q1009 NOSIG CB/SW/NE
Conditions at: VVCT (CAN THO , VN) observed 1230 UTC 22 April 2021
Temperature: 26.0°C (79°F)
Dewpoint: 25.0°C (77°F) [RH = 94%]
Pressure (altimeter): 29.79 inches Hg (1009.0 mb)
Winds: variable direction winds at 1 MPH (1 knots; 0.5 m/s)
Visibility: 5 miles ( 8 km)
Ceiling: 4000 feet AGL
Clouds: scattered clouds at 1300 feet AGL
few clouds at 1500 feet AGL
broken clouds at 4000 feet AGL
Weather: -RA  (light rain)

METAR text: VVCT 221200Z VRB01KT 8000 -RA SCT013 FEW015CB BKN040 27/26 Q1008 NOSIG CB/SW
Conditions at: VVCT (CAN THO , VN) observed 1200 UTC 22 April 2021
Temperature: 27.0°C (81°F)
Dewpoint: 26.0°C (79°F) [RH = 94%]
Pressure (altimeter): 29.76 inches Hg (1008.0 mb)
Winds: variable direction winds at 1 MPH (1 knots; 0.5 m/s)
Visibility: 5 miles ( 8 km)
Ceiling: 4000 feet AGL
Clouds: scattered clouds at 1300 feet AGL
few clouds at 1500 feet AGL
broken clouds at 4000 feet AGL
Weather: -RA  (light rain)

METAR text: VVCT 221130Z VRB01KT 8000 -RA SCT013 FEW015CB BKN040 26/26 Q1008 NOSIG CB/SW
Conditions at: VVCT (CAN THO , VN) observed 1130 UTC 22 April 2021
Temperature: 26.0°C (79°F)
Dewpoint: 26.0°C (79°F) [RH = 100%]
Pressure (altimeter): 29.76 inches Hg (1008.0 mb)
Winds: variable direction winds at 1 MPH (1 knots; 0.5 m/s)
Visibility: 5 miles ( 8 km)
Ceiling: 4000 feet AGL
Clouds: scattered clouds at 1300 feet AGL
few clouds at 1500 feet AGL
broken clouds at 4000 feet AGL
Weather: -RA  (light rain)

METAR text: VVCT 221100Z VRB01KT 9999 FEW013 FEW015CB BKN040 26/25 Q1008 NOSIG CB/SW
Conditions at: VVCT (CAN THO , VN) observed 1100 UTC 22 April 2021
Temperature: 26.0°C (79°F)
Dewpoint: 25.0°C (77°F) [RH = 94%]
Pressure (altimeter): 29.76 inches Hg (1008.0 mb)
Winds: variable direction winds at 1 MPH (1 knots; 0.5 m/s)
Visibility: 6 or more miles (10+ km)
Ceiling: 4000 feet AGL
Clouds: few clouds at 1300 feet AGL
few clouds at 1500 feet AGL
broken clouds at 4000 feet AGL
Weather: no significant weather observed at this time

METAR text: VVCT 221030Z VRB03KT 9999 FEW013 FEW015CB BKN040 26/25 Q1007 NOSIG CB/SW
Conditions at: VVCT (CAN THO , VN) observed 1030 UTC 22 April 2021
Temperature: 26.0°C (79°F)
Dewpoint: 25.0°C (77°F) [RH = 94%]
Pressure (altimeter): 29.73 inches Hg (1007.0 mb)
Winds: variable direction winds at 3 MPH (3 knots; 1.5 m/s)
Visibility: 6 or more miles (10+ km)
Ceiling: 4000 feet AGL
Clouds: few clouds at 1300 feet AGL
few clouds at 1500 feet AGL
broken clouds at 4000 feet AGL
Weather: no significant weather observed at this time

METAR text: VVCT 221000Z 17004KT 9999 FEW013 FEW015CB BKN040 26/26 Q1006 NOSIG CB/OVER RWY
Conditions at: VVCT (CAN THO , VN) observed 1000 UTC 22 April 2021
Temperature: 26.0°C (79°F)
Dewpoint: 26.0°C (79°F) [RH = 100%]
Pressure (altimeter): 29.70 inches Hg (1006.0 mb)
Winds: from the S (170 degrees) at 5 MPH (4 knots; 2.1 m/s)
Visibility: 6 or more miles (10+ km)
Ceiling: 4000 feet AGL
Clouds: few clouds at 1300 feet AGL
few clouds at 1500 feet AGL
broken clouds at 4000 feet AGL
Weather: no significant weather observed at this time

METAR text: VVCT 220930Z 17005KT 9999 FEW013 FEW015CB BKN040 27/26 Q1006 NOSIG CB/OVER RWY
Conditions at: VVCT (CAN THO , VN) observed 0930 UTC 22 April 2021
Temperature: 27.0°C (81°F)
Dewpoint: 26.0°C (79°F) [RH = 94%]
Pressure (altimeter): 29.70 inches Hg (1006.0 mb)
Winds: from the S (170 degrees) at 6 MPH (5 knots; 2.6 m/s)
Visibility: 6 or more miles (10+ km)
Ceiling: 4000 feet AGL
Clouds: few clouds at 1300 feet AGL
few clouds at 1500 feet AGL
broken clouds at 4000 feet AGL
Weather: no significant weather observed at this time

METAR text: VVCT 220900Z VRB01KT 8000 -RA SCT013 FEW015CB BKN040 27/26 Q1006 NOSIG CB/OVER RWY
Conditions at: VVCT (CAN THO , VN) observed 0900 UTC 22 April 2021
Temperature: 27.0°C (81°F)
Dewpoint: 26.0°C (79°F) [RH = 94%]
Pressure (altimeter): 29.70 inches Hg (1006.0 mb)
Winds: variable direction winds at 1 MPH (1 knots; 0.5 m/s)
Visibility: 5 miles ( 8 km)
Ceiling: 4000 feet AGL
Clouds: scattered clouds at 1300 feet AGL
few clouds at 1500 feet AGL
broken clouds at 4000 feet AGL
Weather: -RA  (light rain)

METAR text: VVCT 220830Z VRB02KT 8000 -TSRA SCT013 FEW015CB BKN040 26/25 Q1007 NOSIG CB/OVER RWY
Conditions at: VVCT (CAN THO , VN) observed 0830 UTC 22 April 2021
Temperature: 26.0°C (79°F)
Dewpoint: 25.0°C (77°F) [RH = 94%]
Pressure (altimeter): 29.73 inches Hg (1007.0 mb)
Winds: variable direction winds at 2 MPH (2 knots; 1.0 m/s)
Visibility: 5 miles ( 8 km)
Ceiling: 4000 feet AGL
Clouds: scattered clouds at 1300 feet AGL
few clouds at 1500 feet AGL
broken clouds at 4000 feet AGL
Weather: -TSRA  (light rain associated with thunderstorm(s))

METAR text: VVCT 220800Z VRB04KT 6000 -TSRA SCT010 SCT015CB BKN040 26/25 Q1007 NOSIG CB/NW/OVER RWY
Conditions at: VVCT (CAN THO , VN) observed 0800 UTC 22 April 2021
Temperature: 26.0°C (79°F)
Dewpoint: 25.0°C (77°F) [RH = 94%]
Pressure (altimeter): 29.73 inches Hg (1007.0 mb)
Winds: variable direction winds at 5 MPH (4 knots; 2.1 m/s)
Visibility: 4 miles ( 6 km)
Ceiling: 4000 feet AGL
Clouds: scattered clouds at 1000 feet AGL
scattered clouds at 1500 feet AGL
broken clouds at 4000 feet AGL
Weather: -TSRA  (light rain associated with thunderstorm(s))

METAR text: VVCT 220730Z 25009KT 210V280 8000 -TSRA SCT010 SCT015CB BKN040 28/24 Q1006 NOSIG CB/NW/OVER RWY
Conditions at: VVCT (CAN THO , VN) observed 0730 UTC 22 April 2021
Temperature: 28.0°C (82°F)
Dewpoint: 24.0°C (75°F) [RH = 79%]
Pressure (altimeter): 29.70 inches Hg (1006.0 mb)
Winds: from the WSW (250 degrees) at 10 MPH (9 knots; 4.6 m/s)
Visibility: 5 miles ( 8 km)
Ceiling: 4000 feet AGL
Clouds: scattered clouds at 1000 feet AGL
scattered clouds at 1500 feet AGL
broken clouds at 4000 feet AGL
Weather: -TSRA  (light rain associated with thunderstorm(s))

METAR text: VVCT 220700Z 25005KT 9999 SCT013 FEW015CB BKN040 32/26 Q1007 NOSIG CB/OVER RWY
Conditions at: VVCT (CAN THO , VN) observed 0700 UTC 22 April 2021
Temperature: 32.0°C (90°F)
Dewpoint: 26.0°C (79°F) [RH = 71%]
Pressure (altimeter): 29.73 inches Hg (1007.0 mb)
Winds: from the WSW (250 degrees) at 6 MPH (5 knots; 2.6 m/s)
Visibility: 6 or more miles (10+ km)
Ceiling: 4000 feet AGL
Clouds: scattered clouds at 1300 feet AGL
few clouds at 1500 feet AGL
broken clouds at 4000 feet AGL
Weather: no significant weather observed at this time

METAR text: VVCT 220630Z 25005KT 9999 BKN013 FEW015CB 32/26 Q1007 NOSIG CB/OVER RWY
Conditions at: VVCT (CAN THO , VN) observed 0630 UTC 22 April 2021
Temperature: 32.0°C (90°F)
Dewpoint: 26.0°C (79°F) [RH = 71%]
Pressure (altimeter): 29.73 inches Hg (1007.0 mb)
Winds: from the WSW (250 degrees) at 6 MPH (5 knots; 2.6 m/s)
Visibility: 6 or more miles (10+ km)
Ceiling: 1300 feet AGL
Clouds: broken clouds at 1300 feet AGL
few clouds at 1500 feet AGL
Weather: no significant weather observed at this time

METAR text: VVCT 220600Z 26006KT 9999 BKN013 FEW015CB 32/26 Q1008 NOSIG CB/N/OVER RWY
Conditions at: VVCT (CAN THO , VN) observed 0600 UTC 22 April 2021
Temperature: 32.0°C (90°F)
Dewpoint: 26.0°C (79°F) [RH = 71%]
Pressure (altimeter): 29.76 inches Hg (1008.0 mb)
Winds: from the W (260 degrees) at 7 MPH (6 knots; 3.1 m/s)
Visibility: 6 or more miles (10+ km)
Ceiling: 1300 feet AGL
Clouds: broken clouds at 1300 feet AGL
few clouds at 1500 feet AGL
Weather: no significant weather observed at this time

METAR text: VVCT 220530Z 23008KT 9999 BKN013 FEW015CB 33/27 Q1009 NOSIG CB/N/OVER RWY
Conditions at: VVCT (CAN THO , VN) observed 0530 UTC 22 April 2021
Temperature: 33.0°C (91°F)
Dewpoint: 27.0°C (81°F) [RH = 71%]
Pressure (altimeter): 29.79 inches Hg (1009.0 mb)
Winds: from the SW (230 degrees) at 9 MPH (8 knots; 4.1 m/s)
Visibility: 6 or more miles (10+ km)
Ceiling: 1300 feet AGL
Clouds: broken clouds at 1300 feet AGL
few clouds at 1500 feet AGL
Weather: no significant weather observed at this time

METAR text: VVCT 220500Z 23007KT 9999 BKN013 32/26 Q1009 NOSIG
Conditions at: VVCT (CAN THO , VN) observed 0500 UTC 22 April 2021
Temperature: 32.0°C (90°F)
Dewpoint: 26.0°C (79°F) [RH = 71%]
Pressure (altimeter): 29.79 inches Hg (1009.0 mb)
Winds: from the SW (230 degrees) at 8 MPH (7 knots; 3.6 m/s)
Visibility: 6 or more miles (10+ km)
Ceiling: 1300 feet AGL
Clouds: broken clouds at 1300 feet AGL
Weather: no significant weather observed at this time

METAR text: VVCT 220430Z 22006KT 9999 BKN013 32/27 Q1010 NOSIG
Conditions at: VVCT (CAN THO , VN) observed 0430 UTC 22 April 2021
Temperature: 32.0°C (90°F)
Dewpoint: 27.0°C (81°F) [RH = 75%]
Pressure (altimeter): 29.82 inches Hg (1010.0 mb)
Winds: from the SW (220 degrees) at 7 MPH (6 knots; 3.1 m/s)
Visibility: 6 or more miles (10+ km)
Ceiling: 1300 feet AGL
Clouds: broken clouds at 1300 feet AGL
Weather: no significant weather observed at this time

METAR text: VVCT 220400Z 22006KT 9999 BKN013 32/27 Q1010 NOSIG
Conditions at: VVCT (CAN THO , VN) observed 0400 UTC 22 April 2021
Temperature: 32.0°C (90°F)
Dewpoint: 27.0°C (81°F) [RH = 75%]
Pressure (altimeter): 29.82 inches Hg (1010.0 mb)
Winds: from the SW (220 degrees) at 7 MPH (6 knots; 3.1 m/s)
Visibility: 6 or more miles (10+ km)
Ceiling: 1300 feet AGL
Clouds: broken clouds at 1300 feet AGL
Weather: no significant weather observed at this time

METAR text: VVCT 220330Z 22006KT 9999 BKN013 FEW015TCU 31/27 Q1010 NOSIG TCU/SW
Conditions at: VVCT (CAN THO , VN) observed 0330 UTC 22 April 2021
Temperature: 31.0°C (88°F)
Dewpoint: 27.0°C (81°F) [RH = 79%]
Pressure (altimeter): 29.82 inches Hg (1010.0 mb)
Winds: from the SW (220 degrees) at 7 MPH (6 knots; 3.1 m/s)
Visibility: 6 or more miles (10+ km)
Ceiling: 1300 feet AGL
Clouds: broken clouds at 1300 feet AGL
few clouds at 1500 feet AGL
Weather: no significant weather observed at this time

METAR text: VVCT 220300Z 20005KT 9999 SCT013 FEW015TCU SCT040 30/28 Q1010 NOSIG TCU/SW
Conditions at: VVCT (CAN THO , VN) observed 0300 UTC 22 April 2021
Temperature: 30.0°C (86°F)
Dewpoint: 28.0°C (82°F) [RH = 89%]
Pressure (altimeter): 29.82 inches Hg (1010.0 mb)
Winds: from the SSW (200 degrees) at 6 MPH (5 knots; 2.6 m/s)
Visibility: 6 or more miles (10+ km)
Ceiling: at least 12,000 feet AGL
Clouds: scattered clouds at 1300 feet AGL
few clouds at 1500 feet AGL
scattered clouds at 4000 feet AGL
Weather: no significant weather observed at this time

METAR text: VVCT 220230Z 20005KT 9999 SCT013 BKN040 31/28 Q1010 NOSIG
Conditions at: VVCT (CAN THO , VN) observed 0230 UTC 22 April 2021
Temperature: 31.0°C (88°F)
Dewpoint: 28.0°C (82°F) [RH = 84%]
Pressure (altimeter): 29.82 inches Hg (1010.0 mb)
Winds: from the SSW (200 degrees) at 6 MPH (5 knots; 2.6 m/s)
Visibility: 6 or more miles (10+ km)
Ceiling: 4000 feet AGL
Clouds: scattered clouds at 1300 feet AGL
broken clouds at 4000 feet AGL
Weather: no significant weather observed at this time

METAR text: VVCT 220200Z 19005KT 9999 FEW013 BKN040 29/27 Q1011 NOSIG
Conditions at: VVCT (CAN THO , VN) observed 0200 UTC 22 April 2021
Temperature: 29.0°C (84°F)
Dewpoint: 27.0°C (81°F) [RH = 89%]
Pressure (altimeter): 29.85 inches Hg (1011.0 mb)
Winds: from the S (190 degrees) at 6 MPH (5 knots; 2.6 m/s)
Visibility: 6 or more miles (10+ km)
Ceiling: 4000 feet AGL
Clouds: few clouds at 1300 feet AGL
broken clouds at 4000 feet AGL
Weather: no significant weather observed at this time

METAR text: VVCT 220130Z 17004KT 9999 FEW013 BKN040 29/27 Q1011 NOSIG
Conditions at: VVCT (CAN THO , VN) observed 0130 UTC 22 April 2021
Temperature: 29.0°C (84°F)
Dewpoint: 27.0°C (81°F) [RH = 89%]
Pressure (altimeter): 29.85 inches Hg (1011.0 mb)
Winds: from the S (170 degrees) at 5 MPH (4 knots; 2.1 m/s)
Visibility: 6 or more miles (10+ km)
Ceiling: 4000 feet AGL
Clouds: few clouds at 1300 feet AGL
broken clouds at 4000 feet AGL
Weather: no significant weather observed at this time

METAR text: VVCT 220100Z 15004KT 8000 FEW013 BKN040 27/26 Q1011 NOSIG
Conditions at: VVCT (CAN THO , VN) observed 0100 UTC 22 April 2021
Temperature: 27.0°C (81°F)
Dewpoint: 26.0°C (79°F) [RH = 94%]
Pressure (altimeter): 29.85 inches Hg (1011.0 mb)
Winds: from the SSE (150 degrees) at 5 MPH (4 knots; 2.1 m/s)
Visibility: 5 miles ( 8 km)
Ceiling: 4000 feet AGL
Clouds: few clouds at 1300 feet AGL
broken clouds at 4000 feet AGL
Weather: no significant weather observed at this time

METAR text: VVCT 220030Z VRB01KT 8000 FEW013 BKN040 27/26 Q1010 NOSIG
Conditions at: VVCT (CAN THO , VN) observed 0030 UTC 22 April 2021
Temperature: 27.0°C (81°F)
Dewpoint: 26.0°C (79°F) [RH = 94%]
Pressure (altimeter): 29.82 inches Hg (1010.0 mb)
Winds: variable direction winds at 1 MPH (1 knots; 0.5 m/s)
Visibility: 5 miles ( 8 km)
Ceiling: 4000 feet AGL
Clouds: few clouds at 1300 feet AGL
broken clouds at 4000 feet AGL
Weather: no significant weather observed at this time

METAR text: VVCT 220000Z VRB01KT 8000 FEW013 BKN040 27/26 Q1010 NOSIG
Conditions at: VVCT (CAN THO , VN) observed 0000 UTC 22 April 2021
Temperature: 27.0°C (81°F)
Dewpoint: 26.0°C (79°F) [RH = 94%]
Pressure (altimeter): 29.82 inches Hg (1010.0 mb)
Winds: variable direction winds at 1 MPH (1 knots; 0.5 m/s)
Visibility: 5 miles ( 8 km)
Ceiling: 4000 feet AGL
Clouds: few clouds at 1300 feet AGL
broken clouds at 4000 feet AGL
Weather: no significant weather observed at this time

METAR text: VVCT 212330Z 10001KT 8000 FEW013 SCT040 27/26 Q1009 NOSIG
Conditions at: VVCT (CAN THO , VN) observed 2330 UTC 21 April 2021
Temperature: 27.0°C (81°F)
Dewpoint: 26.0°C (79°F) [RH = 94%]
Pressure (altimeter): 29.79 inches Hg (1009.0 mb)
Winds: from the E (100 degrees) at 1 MPH (1 knots; 0.5 m/s)
Visibility: 5 miles ( 8 km)
Ceiling: at least 12,000 feet AGL
Clouds: few clouds at 1300 feet AGL
scattered clouds at 4000 feet AGL
Weather: no significant weather observed at this time

METAR text: VVCT 212300Z 12001KT 8000 FEW013 SCT040 26/26 Q1009 NOSIG
Conditions at: VVCT (CAN THO , VN) observed 2300 UTC 21 April 2021
Temperature: 26.0°C (79°F)
Dewpoint: 26.0°C (79°F) [RH = 100%]
Pressure (altimeter): 29.79 inches Hg (1009.0 mb)
Winds: from the ESE (120 degrees) at 1 MPH (1 knots; 0.5 m/s)
Visibility: 5 miles ( 8 km)
Ceiling: at least 12,000 feet AGL
Clouds: few clouds at 1300 feet AGL
scattered clouds at 4000 feet AGL
Weather: no significant weather observed at this time

METAR text: VVCT 212230Z 00000KT 8000 FEW013 SCT040 26/26 Q1009 NOSIG
Conditions at: VVCT (CAN THO , VN) observed 2230 UTC 21 April 2021
Temperature: 26.0°C (79°F)
Dewpoint: 26.0°C (79°F) [RH = 100%]
Pressure (altimeter): 29.79 inches Hg (1009.0 mb)
Winds: calm
Visibility: 5 miles ( 8 km)
Ceiling: at least 12,000 feet AGL
Clouds: few clouds at 1300 feet AGL
scattered clouds at 4000 feet AGL
Weather: no significant weather observed at this time

METAR text: VVCT 212200Z 16002KT 8000 FEW013 SCT040 26/26 Q1008 NOSIG
Conditions at: VVCT (CAN THO , VN) observed 2200 UTC 21 April 2021
Temperature: 26.0°C (79°F)
Dewpoint: 26.0°C (79°F) [RH = 100%]
Pressure (altimeter): 29.76 inches Hg (1008.0 mb)
Winds: from the SSE (160 degrees) at 2 MPH (2 knots; 1.0 m/s)
Visibility: 5 miles ( 8 km)
Ceiling: at least 12,000 feet AGL
Clouds: few clouds at 1300 feet AGL
scattered clouds at 4000 feet AGL
Weather: no significant weather observed at this time

METAR text: VVCT 212130Z 16003KT 8000 FEW013 SCT040 26/26 Q1008 NOSIG
Conditions at: VVCT (CAN THO , VN) observed 2130 UTC 21 April 2021
Temperature: 26.0°C (79°F)
Dewpoint: 26.0°C (79°F) [RH = 100%]
Pressure (altimeter): 29.76 inches Hg (1008.0 mb)
Winds: from the SSE (160 degrees) at 3 MPH (3 knots; 1.5 m/s)
Visibility: 5 miles ( 8 km)
Ceiling: at least 12,000 feet AGL
Clouds: few clouds at 1300 feet AGL
scattered clouds at 4000 feet AGL
Weather: no significant weather observed at this time

METAR text: VVCT 212100Z 00000KT 8000 FEW013 SCT040 26/26 Q1008 NOSIG
Conditions at: VVCT (CAN THO , VN) observed 2100 UTC 21 April 2021
Temperature: 26.0°C (79°F)
Dewpoint: 26.0°C (79°F) [RH = 100%]
Pressure (altimeter): 29.76 inches Hg (1008.0 mb)
Winds: calm
Visibility: 5 miles ( 8 km)
Ceiling: at least 12,000 feet AGL
Clouds: few clouds at 1300 feet AGL
scattered clouds at 4000 feet AGL
Weather: no significant weather observed at this time

METAR text: VVCT 212030Z VRB01KT 8000 FEW013 SCT040 26/26 Q1008 NOSIG
Conditions at: VVCT (CAN THO , VN) observed 2030 UTC 21 April 2021
Temperature: 26.0°C (79°F)
Dewpoint: 26.0°C (79°F) [RH = 100%]
Pressure (altimeter): 29.76 inches Hg (1008.0 mb)
Winds: variable direction winds at 1 MPH (1 knots; 0.5 m/s)
Visibility: 5 miles ( 8 km)
Ceiling: at least 12,000 feet AGL
Clouds: few clouds at 1300 feet AGL
scattered clouds at 4000 feet AGL
Weather: no significant weather observed at this time

METAR text: VVCT 211830Z 00000KT 8000 FEW013 SCT040 26/26 Q1009 NOSIG
Conditions at: VVCT (CAN THO , VN) observed 1830 UTC 21 April 2021
Temperature: 26.0°C (79°F)
Dewpoint: 26.0°C (79°F) [RH = 100%]
Pressure (altimeter): 29.79 inches Hg (1009.0 mb)
Winds: calm
Visibility: 5 miles ( 8 km)
Ceiling: at least 12,000 feet AGL
Clouds: few clouds at 1300 feet AGL
scattered clouds at 4000 feet AGL
Weather: no significant weather observed at this time

METAR text: VVCT 211800Z 00000KT 8000 FEW013 SCT040 26/26 Q1009 NOSIG
Conditions at: VVCT (CAN THO , VN) observed 1800 UTC 21 April 2021
Temperature: 26.0°C (79°F)
Dewpoint: 26.0°C (79°F) [RH = 100%]
Pressure (altimeter): 29.79 inches Hg (1009.0 mb)
Winds: calm
Visibility: 5 miles ( 8 km)
Ceiling: at least 12,000 feet AGL
Clouds: few clouds at 1300 feet AGL
scattered clouds at 4000 feet AGL
Weather: no significant weather observed at this time

METAR text: VVCT 211730Z 00000KT 8000 FEW013 SCT040 26/26 Q1009 NOSIG
Conditions at: VVCT (CAN THO , VN) observed 1730 UTC 21 April 2021
Temperature: 26.0°C (79°F)
Dewpoint: 26.0°C (79°F) [RH = 100%]
Pressure (altimeter): 29.79 inches Hg (1009.0 mb)
Winds: calm
Visibility: 5 miles ( 8 km)
Ceiling: at least 12,000 feet AGL
Clouds: few clouds at 1300 feet AGL
scattered clouds at 4000 feet AGL
Weather: no significant weather observed at this time

METAR text: VVCT 211700Z 15002KT 8000 FEW013 SCT040 26/26 Q1009 NOSIG
Conditions at: VVCT (CAN THO , VN) observed 1700 UTC 21 April 2021
Temperature: 26.0°C (79°F)
Dewpoint: 26.0°C (79°F) [RH = 100%]
Pressure (altimeter): 29.79 inches Hg (1009.0 mb)
Winds: from the SSE (150 degrees) at 2 MPH (2 knots; 1.0 m/s)
Visibility: 5 miles ( 8 km)
Ceiling: at least 12,000 feet AGL
Clouds: few clouds at 1300 feet AGL
scattered clouds at 4000 feet AGL
Weather: no significant weather observed at this time

METAR text: VVCT 211630Z VRB01KT 8000 FEW013 SCT040 26/26 Q1010 NOSIG
Conditions at: VVCT (CAN THO , VN) observed 1630 UTC 21 April 2021
Temperature: 26.0°C (79°F)
Dewpoint: 26.0°C (79°F) [RH = 100%]
Pressure (altimeter): 29.82 inches Hg (1010.0 mb)
Winds: variable direction winds at 1 MPH (1 knots; 0.5 m/s)
Visibility: 5 miles ( 8 km)
Ceiling: at least 12,000 feet AGL
Clouds: few clouds at 1300 feet AGL
scattered clouds at 4000 feet AGL
Weather: no significant weather observed at this time

METAR text: VVCT 211600Z VRB01KT 8000 FEW013 SCT040 27/26 Q1010 NOSIG
Conditions at: VVCT (CAN THO , VN) observed 1600 UTC 21 April 2021
Temperature: 27.0°C (81°F)
Dewpoint: 26.0°C (79°F) [RH = 94%]
Pressure (altimeter): 29.82 inches Hg (1010.0 mb)
Winds: variable direction winds at 1 MPH (1 knots; 0.5 m/s)
Visibility: 5 miles ( 8 km)
Ceiling: at least 12,000 feet AGL
Clouds: few clouds at 1300 feet AGL
scattered clouds at 4000 feet AGL
Weather: no significant weather observed at this time

METAR text: VVCT 211530Z VRB01KT 8000 SCT013 SCT040 27/25 Q1010 NOSIG
Conditions at: VVCT (CAN THO , VN) observed 1530 UTC 21 April 2021
Temperature: 27.0°C (81°F)
Dewpoint: 25.0°C (77°F) [RH = 89%]
Pressure (altimeter): 29.82 inches Hg (1010.0 mb)
Winds: variable direction winds at 1 MPH (1 knots; 0.5 m/s)
Visibility: 5 miles ( 8 km)
Ceiling: at least 12,000 feet AGL
Clouds: scattered clouds at 1300 feet AGL
scattered clouds at 4000 feet AGL
Weather: no significant weather observed at this time

METAR text: VVCT 211500Z VRB03KT 8000 SCT013 FEW015TCU SCT040 27/25 Q1010 NOSIG TCU/OVER RWY
Conditions at: VVCT (CAN THO , VN) observed 1500 UTC 21 April 2021
Temperature: 27.0°C (81°F)
Dewpoint: 25.0°C (77°F) [RH = 89%]
Pressure (altimeter): 29.82 inches Hg (1010.0 mb)
Winds: variable direction winds at 3 MPH (3 knots; 1.5 m/s)
Visibility: 5 miles ( 8 km)
Ceiling: at least 12,000 feet AGL
Clouds: scattered clouds at 1300 feet AGL
few clouds at 1500 feet AGL
scattered clouds at 4000 feet AGL
Weather: no significant weather observed at this time

METAR text: VVCT 211430Z VRB02KT 8000 SCT013 FEW015TCU SCT040 27/25 Q1010 NOSIG TCU/OVER RWY
Conditions at: VVCT (CAN THO , VN) observed 1430 UTC 21 April 2021
Temperature: 27.0°C (81°F)
Dewpoint: 25.0°C (77°F) [RH = 89%]
Pressure (altimeter): 29.82 inches Hg (1010.0 mb)
Winds: variable direction winds at 2 MPH (2 knots; 1.0 m/s)
Visibility: 5 miles ( 8 km)
Ceiling: at least 12,000 feet AGL
Clouds: scattered clouds at 1300 feet AGL
few clouds at 1500 feet AGL
scattered clouds at 4000 feet AGL
Weather: no significant weather observed at this time

METAR text: VVCT 211400Z VRB03KT 8000 SCT013 FEW015TCU SCT040 27/25 Q1010 NOSIG TCU/OVER RWY
Conditions at: VVCT (CAN THO , VN) observed 1400 UTC 21 April 2021
Temperature: 27.0°C (81°F)
Dewpoint: 25.0°C (77°F) [RH = 89%]
Pressure (altimeter): 29.82 inches Hg (1010.0 mb)
Winds: variable direction winds at 3 MPH (3 knots; 1.5 m/s)
Visibility: 5 miles ( 8 km)
Ceiling: at least 12,000 feet AGL
Clouds: scattered clouds at 1300 feet AGL
few clouds at 1500 feet AGL
scattered clouds at 4000 feet AGL
Weather: no significant weather observed at this time

METAR text: VVCT 211330Z 15004KT 8000 SCT013 FEW015TCU SCT040 27/25 Q1010 NOSIG TCU/OVER RWY
Conditions at: VVCT (CAN THO , VN) observed 1330 UTC 21 April 2021
Temperature: 27.0°C (81°F)
Dewpoint: 25.0°C (77°F) [RH = 89%]
Pressure (altimeter): 29.82 inches Hg (1010.0 mb)
Winds: from the SSE (150 degrees) at 5 MPH (4 knots; 2.1 m/s)
Visibility: 5 miles ( 8 km)
Ceiling: at least 12,000 feet AGL
Clouds: scattered clouds at 1300 feet AGL
few clouds at 1500 feet AGL
scattered clouds at 4000 feet AGL
Weather: no significant weather observed at this time

METAR text: VVCT 211300Z 19004KT 8000 SCT013 FEW015TCU SCT040 28/25 Q1009 NOSIG TCU/OVER RWY
Conditions at: VVCT (CAN THO , VN) observed 1300 UTC 21 April 2021
Temperature: 28.0°C (82°F)
Dewpoint: 25.0°C (77°F) [RH = 84%]
Pressure (altimeter): 29.79 inches Hg (1009.0 mb)
Winds: from the S (190 degrees) at 5 MPH (4 knots; 2.1 m/s)
Visibility: 5 miles ( 8 km)
Ceiling: at least 12,000 feet AGL
Clouds: scattered clouds at 1300 feet AGL
few clouds at 1500 feet AGL
scattered clouds at 4000 feet AGL
Weather: no significant weather observed at this time

METAR text: VVCT 211230Z 17004KT 8000 SCT013 FEW015TCU SCT040 28/25 Q1009 NOSIG TCU/OVER RWY
Conditions at: VVCT (CAN THO , VN) observed 1230 UTC 21 April 2021
Temperature: 28.0°C (82°F)
Dewpoint: 25.0°C (77°F) [RH = 84%]
Pressure (altimeter): 29.79 inches Hg (1009.0 mb)
Winds: from the S (170 degrees) at 5 MPH (4 knots; 2.1 m/s)
Visibility: 5 miles ( 8 km)
Ceiling: at least 12,000 feet AGL
Clouds: scattered clouds at 1300 feet AGL
few clouds at 1500 feet AGL
scattered clouds at 4000 feet AGL
Weather: no significant weather observed at this time

METAR text: VVCT 211200Z 18003KT 8000 SCT013 FEW015TCU SCT040 28/24 Q1008 NOSIG TCU/OVER RWY
Conditions at: VVCT (CAN THO , VN) observed 1200 UTC 21 April 2021
Temperature: 28.0°C (82°F)
Dewpoint: 24.0°C (75°F) [RH = 79%]
Pressure (altimeter): 29.76 inches Hg (1008.0 mb)
Winds: from the S (180 degrees) at 3 MPH (3 knots; 1.5 m/s)
Visibility: 5 miles ( 8 km)
Ceiling: at least 12,000 feet AGL
Clouds: scattered clouds at 1300 feet AGL
few clouds at 1500 feet AGL
scattered clouds at 4000 feet AGL
Weather: no significant weather observed at this time

METAR text: VVCT 211130Z 21006KT 8000 SCT013 FEW015TCU SCT040 29/25 Q1008 NOSIG TCU/OVER RWY
Conditions at: VVCT (CAN THO , VN) observed 1130 UTC 21 April 2021
Temperature: 29.0°C (84°F)
Dewpoint: 25.0°C (77°F) [RH = 79%]
Pressure (altimeter): 29.76 inches Hg (1008.0 mb)
Winds: from the SSW (210 degrees) at 7 MPH (6 knots; 3.1 m/s)
Visibility: 5 miles ( 8 km)
Ceiling: at least 12,000 feet AGL
Clouds: scattered clouds at 1300 feet AGL
few clouds at 1500 feet AGL
scattered clouds at 4000 feet AGL
Weather: no significant weather observed at this time

METAR text: VVCT 211100Z 17005KT 9999 SCT013 FEW015CB SCT040 30/25 Q1008 NOSIG CB/E/OVER RWY
Conditions at: VVCT (CAN THO , VN) observed 1100 UTC 21 April 2021
Temperature: 30.0°C (86°F)
Dewpoint: 25.0°C (77°F) [RH = 75%]
Pressure (altimeter): 29.76 inches Hg (1008.0 mb)
Winds: from the S (170 degrees) at 6 MPH (5 knots; 2.6 m/s)
Visibility: 6 or more miles (10+ km)
Ceiling: at least 12,000 feet AGL
Clouds: scattered clouds at 1300 feet AGL
few clouds at 1500 feet AGL
scattered clouds at 4000 feet AGL
Weather: no significant weather observed at this time

METAR text: VVCT 211030Z 28004KT 9999 FEW013 FEW015CB SCT040 30/26 Q1007 NOSIG CB/E/OVER RWY
Conditions at: VVCT (CAN THO , VN) observed 1030 UTC 21 April 2021
Temperature: 30.0°C (86°F)
Dewpoint: 26.0°C (79°F) [RH = 79%]
Pressure (altimeter): 29.73 inches Hg (1007.0 mb)
Winds: from the W (280 degrees) at 5 MPH (4 knots; 2.1 m/s)
Visibility: 6 or more miles (10+ km)
Ceiling: at least 12,000 feet AGL
Clouds: few clouds at 1300 feet AGL
few clouds at 1500 feet AGL
scattered clouds at 4000 feet AGL
Weather: no significant weather observed at this time

METAR text: VVCT 211000Z 28004KT 9999 SCT013 FEW015TCU 31/26 Q1007 NOSIG TCU/OVER RWY
Conditions at: VVCT (CAN THO , VN) observed 1000 UTC 21 April 2021
Temperature: 31.0°C (88°F)
Dewpoint: 26.0°C (79°F) [RH = 75%]
Pressure (altimeter): 29.73 inches Hg (1007.0 mb)
Winds: from the W (280 degrees) at 5 MPH (4 knots; 2.1 m/s)
Visibility: 6 or more miles (10+ km)
Ceiling: at least 12,000 feet AGL
Clouds: scattered clouds at 1300 feet AGL
few clouds at 1500 feet AGL
Weather: no significant weather observed at this time

METAR text: VVCT 210930Z VRB03KT 9999 SCT013 FEW015TCU 32/26 Q1006 NOSIG TCU/OVER RWY
Conditions at: VVCT (CAN THO , VN) observed 0930 UTC 21 April 2021
Temperature: 32.0°C (90°F)
Dewpoint: 26.0°C (79°F) [RH = 71%]
Pressure (altimeter): 29.70 inches Hg (1006.0 mb)
Winds: variable direction winds at 3 MPH (3 knots; 1.5 m/s)
Visibility: 6 or more miles (10+ km)
Ceiling: at least 12,000 feet AGL
Clouds: scattered clouds at 1300 feet AGL
few clouds at 1500 feet AGL
Weather: no significant weather observed at this time

METAR text: VVCT 210900Z 24005KT 9999 SCT015 FEW017CB 32/25 Q1006 NOSIG CB/NE/OVER RWY
Conditions at: VVCT (CAN THO , VN) observed 0900 UTC 21 April 2021
Temperature: 32.0°C (90°F)
Dewpoint: 25.0°C (77°F) [RH = 67%]
Pressure (altimeter): 29.70 inches Hg (1006.0 mb)
Winds: from the WSW (240 degrees) at 6 MPH (5 knots; 2.6 m/s)
Visibility: 6 or more miles (10+ km)
Ceiling: at least 12,000 feet AGL
Clouds: scattered clouds at 1500 feet AGL
few clouds at 1700 feet AGL
Weather: no significant weather observed at this time

METAR text: VVCT 210830Z 23007KT 9999 SCT015 FEW017CB 32/26 Q1007 NOSIG CB/S/SW/OVER RWY
Conditions at: VVCT (CAN THO , VN) observed 0830 UTC 21 April 2021
Temperature: 32.0°C (90°F)
Dewpoint: 26.0°C (79°F) [RH = 71%]
Pressure (altimeter): 29.73 inches Hg (1007.0 mb)
Winds: from the SW (230 degrees) at 8 MPH (7 knots; 3.6 m/s)
Visibility: 6 or more miles (10+ km)
Ceiling: at least 12,000 feet AGL
Clouds: scattered clouds at 1500 feet AGL
few clouds at 1700 feet AGL
Weather: no significant weather observed at this time

METAR text: VVCT 210800Z VRB03KT 9999 SCT015 FEW017CB 33/25 Q1007 NOSIG CB/S/OVER RWY
Conditions at: VVCT (CAN THO , VN) observed 0800 UTC 21 April 2021
Temperature: 33.0°C (91°F)
Dewpoint: 25.0°C (77°F) [RH = 63%]
Pressure (altimeter): 29.73 inches Hg (1007.0 mb)
Winds: variable direction winds at 3 MPH (3 knots; 1.5 m/s)
Visibility: 6 or more miles (10+ km)
Ceiling: at least 12,000 feet AGL
Clouds: scattered clouds at 1500 feet AGL
few clouds at 1700 feet AGL
Weather: no significant weather observed at this time

METAR text: VVCT 210730Z 26003KT 9999 SCT015 FEW017TCU 34/24 Q1007 NOSIG TCU/S/OVER RWY
Conditions at: VVCT (CAN THO , VN) observed 0730 UTC 21 April 2021
Temperature: 34.0°C (93°F)
Dewpoint: 24.0°C (75°F) [RH = 56%]
Pressure (altimeter): 29.73 inches Hg (1007.0 mb)
Winds: from the W (260 degrees) at 3 MPH (3 knots; 1.5 m/s)
Visibility: 6 or more miles (10+ km)
Ceiling: at least 12,000 feet AGL
Clouds: scattered clouds at 1500 feet AGL
few clouds at 1700 feet AGL
Weather: no significant weather observed at this time

METAR text: VVCT 210700Z VRB03KT 230V330 9999 SCT015 FEW017TCU 34/24 Q1007 NOSIG TCU/OVER RWY
Conditions at: VVCT (CAN THO , VN) observed 0700 UTC 21 April 2021
Temperature: 34.0°C (93°F)
Dewpoint: 24.0°C (75°F) [RH = 56%]
Pressure (altimeter): 29.73 inches Hg (1007.0 mb)
Winds: variable direction winds at 3 MPH (3 knots; 1.5 m/s)
Visibility: 6 or more miles (10+ km)
Ceiling: at least 12,000 feet AGL
Clouds: scattered clouds at 1500 feet AGL
few clouds at 1700 feet AGL
Weather: no significant weather observed at this time

METAR text: VVCT 210630Z 28004KT 230V330 9999 SCT015 FEW017TCU 34/25 Q1008 NOSIG TCU/OVER RWY
Conditions at: VVCT (CAN THO , VN) observed 0630 UTC 21 April 2021
Temperature: 34.0°C (93°F)
Dewpoint: 25.0°C (77°F) [RH = 60%]
Pressure (altimeter): 29.76 inches Hg (1008.0 mb)
Winds: from the W (280 degrees) at 5 MPH (4 knots; 2.1 m/s)
Visibility: 6 or more miles (10+ km)
Ceiling: at least 12,000 feet AGL
Clouds: scattered clouds at 1500 feet AGL
few clouds at 1700 feet AGL
Weather: no significant weather observed at this time

METAR text: VVCT 210600Z 25005KT 220V310 9999 SCT015 FEW017TCU 33/25 Q1008 NOSIG TCU/SW
Conditions at: VVCT (CAN THO , VN) observed 0600 UTC 21 April 2021
Temperature: 33.0°C (91°F)
Dewpoint: 25.0°C (77°F) [RH = 63%]
Pressure (altimeter): 29.76 inches Hg (1008.0 mb)
Winds: from the WSW (250 degrees) at 6 MPH (5 knots; 2.6 m/s)
Visibility: 6 or more miles (10+ km)
Ceiling: at least 12,000 feet AGL
Clouds: scattered clouds at 1500 feet AGL
few clouds at 1700 feet AGL
Weather: no significant weather observed at this time

METAR text: VVCT 210530Z 25006KT 210V300 9999 SCT015 FEW017TCU 33/25 Q1009 NOSIG TCU/SW
Conditions at: VVCT (CAN THO , VN) observed 0530 UTC 21 April 2021
Temperature: 33.0°C (91°F)
Dewpoint: 25.0°C (77°F) [RH = 63%]
Pressure (altimeter): 29.79 inches Hg (1009.0 mb)
Winds: from the WSW (250 degrees) at 7 MPH (6 knots; 3.1 m/s)
Visibility: 6 or more miles (10+ km)
Ceiling: at least 12,000 feet AGL
Clouds: scattered clouds at 1500 feet AGL
few clouds at 1700 feet AGL
Weather: no significant weather observed at this time

METAR text: VVCT 210500Z 28004KT 230V310 9999 SCT015 33/25 Q1010 NOSIG
Conditions at: VVCT (CAN THO , VN) observed 0500 UTC 21 April 2021
Temperature: 33.0°C (91°F)
Dewpoint: 25.0°C (77°F) [RH = 63%]
Pressure (altimeter): 29.82 inches Hg (1010.0 mb)
Winds: from the W (280 degrees) at 5 MPH (4 knots; 2.1 m/s)
Visibility: 6 or more miles (10+ km)
Ceiling: at least 12,000 feet AGL
Clouds: scattered clouds at 1500 feet AGL
Weather: no significant weather observed at this time

METAR text: VVCT 210430Z 22005KT 170V260 9999 SCT015 33/24 Q1010 NOSIG
Conditions at: VVCT (CAN THO , VN) observed 0430 UTC 21 April 2021
Temperature: 33.0°C (91°F)
Dewpoint: 24.0°C (75°F) [RH = 59%]
Pressure (altimeter): 29.82 inches Hg (1010.0 mb)
Winds: from the SW (220 degrees) at 6 MPH (5 knots; 2.6 m/s)
Visibility: 6 or more miles (10+ km)
Ceiling: at least 12,000 feet AGL
Clouds: scattered clouds at 1500 feet AGL
Weather: no significant weather observed at this time

METAR text: VVCT 210400Z 25005KT 190V310 9999 SCT015 33/25 Q1010 NOSIG
Conditions at: VVCT (CAN THO , VN) observed 0400 UTC 21 April 2021
Temperature: 33.0°C (91°F)
Dewpoint: 25.0°C (77°F) [RH = 63%]
Pressure (altimeter): 29.82 inches Hg (1010.0 mb)
Winds: from the WSW (250 degrees) at 6 MPH (5 knots; 2.6 m/s)
Visibility: 6 or more miles (10+ km)
Ceiling: at least 12,000 feet AGL
Clouds: scattered clouds at 1500 feet AGL
Weather: no significant weather observed at this time

METAR text: VVCT 210330Z 22006KT 090V260 9999 SCT015 33/26 Q1011 NOSIG
Conditions at: VVCT (CAN THO , VN) observed 0330 UTC 21 April 2021
Temperature: 33.0°C (91°F)
Dewpoint: 26.0°C (79°F) [RH = 67%]
Pressure (altimeter): 29.85 inches Hg (1011.0 mb)
Winds: from the SW (220 degrees) at 7 MPH (6 knots; 3.1 m/s)
Visibility: 6 or more miles (10+ km)
Ceiling: at least 12,000 feet AGL
Clouds: scattered clouds at 1500 feet AGL
Weather: no significant weather observed at this time

METAR text: VVCT 210300Z 24008KT 9999 SCT015 32/26 Q1011 NOSIG
Conditions at: VVCT (CAN THO , VN) observed 0300 UTC 21 April 2021
Temperature: 32.0°C (90°F)
Dewpoint: 26.0°C (79°F) [RH = 71%]
Pressure (altimeter): 29.85 inches Hg (1011.0 mb)
Winds: from the WSW (240 degrees) at 9 MPH (8 knots; 4.1 m/s)
Visibility: 6 or more miles (10+ km)
Ceiling: at least 12,000 feet AGL
Clouds: scattered clouds at 1500 feet AGL
Weather: no significant weather observed at this time

METAR text: VVCT 210230Z 22008KT 9999 SCT015 32/26 Q1011 NOSIG
Conditions at: VVCT (CAN THO , VN) observed 0230 UTC 21 April 2021
Temperature: 32.0°C (90°F)
Dewpoint: 26.0°C (79°F) [RH = 71%]
Pressure (altimeter): 29.85 inches Hg (1011.0 mb)
Winds: from the SW (220 degrees) at 9 MPH (8 knots; 4.1 m/s)
Visibility: 6 or more miles (10+ km)
Ceiling: at least 12,000 feet AGL
Clouds: scattered clouds at 1500 feet AGL
Weather: no significant weather observed at this time

METAR text: VVCT 210200Z 23008KT 9999 SCT015 31/25 Q1011 NOSIG
Conditions at: VVCT (CAN THO , VN) observed 0200 UTC 21 April 2021
Temperature: 31.0°C (88°F)
Dewpoint: 25.0°C (77°F) [RH = 71%]
Pressure (altimeter): 29.85 inches Hg (1011.0 mb)
Winds: from the SW (230 degrees) at 9 MPH (8 knots; 4.1 m/s)
Visibility: 6 or more miles (10+ km)
Ceiling: at least 12,000 feet AGL
Clouds: scattered clouds at 1500 feet AGL
Weather: no significant weather observed at this time

METAR text: VVCT 210130Z 21008KT 9999 SCT015 30/25 Q1011 NOSIG
Conditions at: VVCT (CAN THO , VN) observed 0130 UTC 21 April 2021
Temperature: 30.0°C (86°F)
Dewpoint: 25.0°C (77°F) [RH = 75%]
Pressure (altimeter): 29.85 inches Hg (1011.0 mb)
Winds: from the SSW (210 degrees) at 9 MPH (8 knots; 4.1 m/s)
Visibility: 6 or more miles (10+ km)
Ceiling: at least 12,000 feet AGL
Clouds: scattered clouds at 1500 feet AGL
Weather: no significant weather observed at this time

Forecast for: VVCT (CAN THO , VN)
Text: TAF VVCT 221100Z 2212/2312 VRB03KT 9999 SCT015 SCT040
Forecast period: 1200 to 2200 UTC 22 April 2021
Forecast type: FROM: standard forecast or significant change
Winds: variable direction winds at 3 MPH (3 knots; 1.5 m/s)
Visibility: 6 or more miles (10+ km)
Ceiling: at least 12,000 feet AGL
Clouds: scattered clouds at 1500 feet AGL
scattered clouds at 4000 feet AGL
Weather: no significant weather forecast for this period
Text: BECMG 2222/2300 22010KT
Forecast period: 2200 UTC 22 April 2021 to 1200 UTC 23 April 2021
Forecast type: BECOMING: Conditions expected to become as follows by 0000 UTC 23 April 2021
Winds: from the SW (220 degrees) at 12 MPH (10 knots; 5.1 m/s)
Visibility: 6 or more miles (10+ km)
Ceiling: at least 12,000 feet AGL
Clouds: scattered clouds at 1500 feet AGL
scattered clouds at 4000 feet AGL
Weather: no significant weather forecast for this period